• Join FlightAware (Why Join?)
  • Login
  • US Flag 
02:30AM EDT


 

Airport Tracker/Info


-or-


 

Live Flight TrackerFlight Track Log ✈ N2102C ✈ 11-Mar-2014 ✈ KLAF - 05C

Flight Track Log - Related Links

Times and Time Zones

All times are in EDT time to prevent confusion due to time zone crossing. See the N2102C flight status page for this flight to view local times or setup timezone preferences in your user account.

Time Position Orientation Groundspeed Altitude Reporting Facility
EDT Latitude Longitude Course Direction KTS MPH feet Rate Location/Type
02:42PM 40.4050 -86.8703 97° East 85 98 2,200  Level Chicago Center
02:43PM 40.4083 -86.8375 82° East 90 104 2,800 480 Climbing Chicago Center
02:44PM 40.4156 -86.8253 52° Northeast 66 76 3,000 420 Climbing Chicago Center
02:44PM 40.4256 -86.8278 349° North 95 109 3,200 540 Climbing Chicago Center
02:45PM 40.4461 -86.8339 347° North 94 108 3,600 480 Climbing Chicago Center
02:45PM 40.4500 -86.8403 309° West 93 107 3,700 360 Climbing Chicago Center
02:46PM 40.4717 -86.8475 346° North 96 110 4,000 360 Climbing Chicago Center
02:46PM 40.4789 -86.8503 344° North 101 116 4,100 60 Climbing Chicago Center
02:47PM 40.4997 -86.8578 345° North 100 115 4,100  Level Chicago Center
02:47PM 40.5056 -86.8631 325° Northwest 112 129 4,100  Level Chicago Center
02:48PM 40.5286 -86.8725 343° North 108 124 4,100  Level Chicago Center
02:48PM 40.5364 -86.8761 341° North 114 131 4,100 -120 Level Chicago Center
02:49PM 40.5569 -86.8875 337° Northwest 109 125 4,000  Descending Chicago Center
02:49PM 40.5669 -86.8917 342° North 111 128 4,100 60 Climbing Chicago Center
02:50PM 40.5936 -86.9044 340° North 105 121 4,100  Level Chicago Center
02:51PM 40.6150 -86.9167 337° Northwest 104 120 4,100  Level Chicago Center
02:51PM 40.6203 -86.9200 334° Northwest 103 119 4,100  Level Chicago Center
02:52PM 40.6403 -86.9297 340° North 99 114 4,100  Level Chicago Center
02:52PM 40.6467 -86.9353 327° Northwest 105 121 4,100  Level Chicago Center
02:53PM 40.6664 -86.9436 342° North 100 115 4,100  Level Chicago Center
02:54PM 40.6939 -86.9556 342° North 102 117 4,100  Level Chicago Center
02:55PM 40.7269 -86.9706 341° North 103 119 4,100  Level Chicago Center
02:56PM 40.7528 -86.9872 334° Northwest 103 119 4,100  Level Chicago Center
02:57PM 40.7769 -87.0008 337° Northwest 100 115 4,100  Level Chicago Center
02:58PM 40.8031 -87.0133 340° North 99 114 4,100  Level Chicago Center
02:59PM 40.8331 -87.0331 334° Northwest 105 121 4,100  Level Chicago Center
03:00PM 40.8639 -87.0514 336° Northwest 112 129 4,100  Level Chicago Center
03:01PM 40.8989 -87.0686 340° North 114 131 4,100 -60 Level Chicago Center
03:02PM 40.9256 -87.0817 340° North 111 128 4,000 -60 Descending Chicago Center
03:03PM 40.9506 -87.0967 336° Northwest 106 122 4,000  Level Chicago Center
03:04PM 40.9836 -87.1158 336° Northwest 111 128 4,100 -180 Climbing Chicago Center
03:05PM 41.0181 -87.1269 346° North 117 135 3,700 -540 Descending Chicago Center
03:06PM 41.0469 -87.1431 337° Northwest 115 132 3,100 -300 Descending Chicago Center
03:07PM 41.0772 -87.1597 337° Northwest 110 127 3,100  Level Chicago Center
03:08PM 41.1064 -87.1736 340° North 111 128 3,100  Level Chicago Center
03:09PM 41.1322 -87.1881 337° Northwest 103 119 3,200  Climbing Chicago Center
03:11PM 41.1619 -87.2025 340° North 108 124 3,100 -60 Descending Chicago Center
03:12PM 41.1878 -87.2161 338° Northwest 102 117 3,100  Level Chicago Center
03:13PM 41.2128 -87.2369 328° Northwest 99 114 3,100  Level Chicago Center
03:14PM 41.2383 -87.2569 330° Northwest 105 121 3,100 -60 Level Chicago Center
03:15PM 41.2653 -87.2761 332° Northwest 110 127 3,000  Descending Chicago Center
03:16PM 41.2922 -87.2956 332° Northwest 101 116 3,100  Climbing Chicago Center
03:17PM 41.3172 -87.3139 331° Northwest 102 117 3,100  Level Chicago Center
03:18PM 41.3456 -87.3333 333° Northwest 106 122 3,100  Level Chicago Center
03:19PM 41.3736 -87.3519 334° Northwest 111 128 3,100  Level Chicago Center
03:20PM 41.3828 -87.3883 289° West 108 124 3,100  Level Chicago Center
03:21PM 41.3919 -87.4289 287° West 107 123 3,100  Level Chicago Center
03:22PM 41.4025 -87.4650 291° West 105 121 3,100  Level Chicago Center
03:23PM 41.4158 -87.5069 293° West 112 129 3,100  Level Chicago Center
03:24PM 41.4272 -87.5450 292° West 111 128 3,100 -300 Level Chicago Center
03:25PM 41.4403 -87.5833 294° West 113 130 2,600 -360 Descending Chicago Center
03:26PM 41.4519 -87.6228 292° West 107 123 2,400 -60 Descending Chicago Center
03:27PM 41.4622 -87.6594 291° West 106 122 2,500  Climbing Chicago Center
03:28PM 41.4867 -87.6689 344° North 98 113 2,400  Descending Chicago Center
03:29PM 41.5022 -87.6428 51° Northeast 97 112 2,500  Climbing Chicago Center
03:30PM 41.5083 -87.6083 77° East 95 109 2,500 -60 Level Chicago Center
03:31PM 41.5044 -87.5706 98° East 98 113 2,400 -120 Descending Chicago Center